Time;durP1;ratioP1;P1;durP2;ratioP2;P2;SDS_P1;SDS_P2;PMS_P1;PMS_P2;Temp;Humidity;BMP_temperature;BMP_pressure;BME280_temperature;BME280_humidity;BME280_pressure;Samples;Min_cycle;Max_cycle;Signal;HPM_P1;HPM_P2
2022/08/14 00:01:49;;;;;;;10.45;7.57;;;22.40;19.00;;;;;;5053804;28;20405;-74
2022/08/14 00:04:14;;;;;;;10.77;7.50;;;22.40;19.20;;;;;;5053578;28;20385;-72
2022/08/14 00:06:40;;;;;;;8.02;7.18;;;22.40;19.20;;;;;;5054088;28;20794;-74
2022/08/14 00:09:05;;;;;;;9.50;7.27;;;22.30;19.40;;;;;;5053589;28;20389;-75
2022/08/14 00:11:31;;;;;;;9.65;6.90;;;22.30;19.50;;;;;;5051110;28;20531;-73
2022/08/14 00:13:57;;;;;;;9.60;7.70;;;22.20;19.80;;;;;;5052973;28;20480;-73
2022/08/14 00:16:22;;;;;;;7.93;7.10;;;22.20;19.90;;;;;;5052852;28;20397;-73
2022/08/14 00:18:48;;;;;;;8.82;7.55;;;22.10;20.00;;;;;;5068026;28;20955;-73
2022/08/14 00:21:13;;;;;;;9.83;7.70;;;22.10;20.60;;;;;;5067478;28;20396;-72
2022/08/14 00:23:40;;;;;;;10.20;7.60;;;22.10;20.70;;;;;;5062575;28;20435;-73
2022/08/14 00:26:05;;;;;;;9.18;8.20;;;22.10;21.10;;;;;;5053695;28;20431;-74
2022/08/14 00:28:31;;;;;;;8.50;7.10;;;22.10;21.10;;;;;;5053278;28;20424;-74
2022/08/14 00:30:58;;;;;;;11.65;8.02;;;22.00;21.30;;;;;;5052904;28;20389;-73
2022/08/14 00:33:25;;;;;;;10.75;8.35;;;22.00;21.60;;;;;;5053154;28;20396;-73
2022/08/14 00:35:52;;;;;;;14.13;7.97;;;22.00;21.60;;;;;;5053119;28;20406;-73
2022/08/14 00:38:18;;;;;;;11.02;7.93;;;22.00;21.80;;;;;;5053002;28;20381;-73
2022/08/14 00:40:44;;;;;;;11.75;8.25;;;22.00;22.40;;;;;;5053381;28;20386;-73
2022/08/14 00:43:10;;;;;;;10.25;7.70;;;21.90;22.40;;;;;;5052349;28;20890;-72
2022/08/14 00:45:36;;;;;;;9.63;6.93;;;21.90;22.60;;;;;;5053168;28;20750;-73
2022/08/14 00:48:02;;;;;;;11.82;8.20;;;21.80;22.60;;;;;;5054105;28;20386;-72
2022/08/14 00:50:31;;;;;;;10.23;7.20;;;21.70;23.10;;;;;;5055086;28;20378;-73
2022/08/14 00:53:02;;;;;;;11.60;8.20;;;21.70;23.40;;;;;;5055105;28;20381;-74
2022/08/14 00:55:29;;;;;;;10.48;8.00;;;21.60;23.70;;;;;;5053206;28;20378;-73
2022/08/14 01:00:40;;;;;;;8.70;7.80;;;21.50;24.80;;;;;;5052231;28;20380;-72
2022/08/14 01:03:07;;;;;;;11.63;7.88;;;21.50;24.90;;;;;;5052561;28;20472;-72
2022/08/14 01:05:33;;;;;;;11.55;8.50;;;21.50;25.20;;;;;;5052631;28;20400;-72
2022/08/14 01:07:59;;;;;;;10.82;9.27;;;21.40;25.60;;;;;;5052840;28;20377;-72
2022/08/14 01:10:49;;;;;;;12.20;8.77;;;21.50;26.30;;;;;;5052481;28;20851;-74
2022/08/14 01:13:16;;;;;;;9.60;8.60;;;21.50;26.50;;;;;;5051814;28;20454;-73
2022/08/14 01:15:48;;;;;;;10.13;9.10;;;21.50;26.70;;;;;;5051845;28;20386;-73
2022/08/14 01:21:10;;;;;;;10.80;9.00;;;21.60;27.10;;;;;;5052636;28;20385;-73
2022/08/14 01:23:38;;;;;;;10.57;8.63;;;21.60;27.10;;;;;;5051661;28;20474;-73
2022/08/14 01:26:05;;;;;;;13.50;9.52;;;21.50;27.80;;;;;;5052149;28;20467;-72
2022/08/14 01:28:33;;;;;;;11.13;9.32;;;21.50;28.40;;;;;;5052512;28;21012;-73
2022/08/14 01:30:59;;;;;;;10.88;9.55;;;21.40;28.80;;;;;;5051555;28;20389;-71
2022/08/14 01:33:30;;;;;;;11.88;9.63;;;21.60;28.80;;;;;;5052038;28;20881;-74
2022/08/14 01:35:59;;;;;;;10.93;8.80;;;21.60;29.10;;;;;;5051889;28;20405;-73
2022/08/14 01:38:33;;;;;;;13.15;10.00;;;21.60;29.30;;;;;;5052172;28;20397;-73
2022/08/14 01:41:05;;;;;;;12.45;9.90;;;21.70;30.10;;;;;;5052745;28;20451;-71
2022/08/14 01:43:37;;;;;;;13.20;9.73;;;21.70;29.50;;;;;;5070596;28;20468;-71
2022/08/14 01:46:05;;;;;;;10.30;9.30;;;21.80;29.70;;;;;;5066884;28;20604;-72
2022/08/14 01:48:32;;;;;;;11.83;10.50;;;21.80;29.50;;;;;;5056695;28;20459;-72
2022/08/14 01:51:00;;;;;;;12.50;10.27;;;21.90;29.40;;;;;;5052666;28;20381;-73
2022/08/14 01:53:27;;;;;;;11.80;10.57;;;22.00;29.10;;;;;;5052363;28;20392;-72
2022/08/14 01:56:04;;;;;;;12.02;10.30;;;22.00;29.60;;;;;;5050791;28;20417;-73
2022/08/14 01:58:30;;;;;;;12.68;10.90;;;22.00;29.30;;;;;;5051840;28;20758;-73
2022/08/14 02:00:57;;;;;;;13.20;11.20;;;22.00;29.40;;;;;;5051704;28;20389;-72
2022/08/14 02:03:29;;;;;;;12.90;10.50;;;22.00;29.40;;;;;;5052330;28;20746;-72
2022/08/14 02:05:57;;;;;;;10.95;9.68;;;22.00;29.70;;;;;;5051911;28;20854;-73
2022/08/14 02:08:28;;;;;;;13.52;10.48;;;22.00;29.80;;;;;;5051833;28;20389;-73
2022/08/14 02:13:24;;;;;;;12.27;10.80;;;22.00;29.80;;;;;;5049617;28;20432;-78
2022/08/14 02:15:50;;;;;;;12.00;10.20;;;22.00;30.00;;;;;;5050817;28;20382;-79
2022/08/14 02:18:16;;;;;;;11.75;9.90;;;22.00;29.80;;;;;;5050469;28;20390;-79
2022/08/14 02:20:41;;;;;;;13.73;10.77;;;22.00;30.80;;;;;;5050441;28;20388;-79
2022/08/14 02:23:07;;;;;;;13.37;10.70;;;21.80;30.90;;;;;;5050488;28;20386;-76
2022/08/14 02:25:32;;;;;;;11.90;10.30;;;21.80;31.20;;;;;;5050732;28;20385;-78
2022/08/14 02:27:58;;;;;;;12.00;10.40;;;21.80;31.30;;;;;;5053512;28;20397;-77
2022/08/14 02:30:25;;;;;;;16.75;10.95;;;21.70;31.80;;;;;;5056233;28;20430;-77
2022/08/14 02:32:51;;;;;;;12.35;11.15;;;21.60;32.20;;;;;;5061350;28;20411;-78
2022/08/14 02:35:17;;;;;;;11.43;10.32;;;21.50;32.80;;;;;;5063956;28;20385;-78
2022/08/14 02:37:49;;;;;;;12.10;10.77;;;21.50;33.40;;;;;;5060727;28;20904;-78
2022/08/14 02:40:17;;;;;;;13.70;10.43;;;21.50;33.10;;;;;;5063006;28;20842;-77
2022/08/14 02:42:42;;;;;;;13.80;11.60;;;21.40;33.70;;;;;;5064398;28;20757;-78
2022/08/14 02:45:08;;;;;;;12.40;11.10;;;21.40;34.10;;;;;;5063334;28;20419;-79
2022/08/14 02:47:35;;;;;;;14.60;11.10;;;21.30;34.60;;;;;;5062695;28;20411;-79
2022/08/14 02:50:00;;;;;;;13.75;10.98;;;21.30;34.70;;;;;;5061541;28;20480;-78
2022/08/14 02:52:26;;;;;;;13.57;11.03;;;21.30;35.40;;;;;;5060084;28;20413;-78
2022/08/14 02:54:52;;;;;;;11.50;10.30;;;21.30;35.30;;;;;;5059720;28;20543;-78
2022/08/14 02:57:20;;;;;;;14.13;11.30;;;21.30;35.30;;;;;;5062302;28;20401;-77
2022/08/14 02:59:47;;;;;;;13.93;11.25;;;21.20;35.30;;;;;;5060956;28;20393;-78
2022/08/14 03:02:13;;;;;;;13.57;10.87;;;21.30;35.50;;;;;;5058227;28;20409;-79
2022/08/14 03:04:39;;;;;;;12.23;11.03;;;21.40;35.00;;;;;;5057966;28;20459;-79
2022/08/14 03:07:04;;;;;;;13.77;10.85;;;21.30;35.40;;;;;;5059768;28;20406;-79
2022/08/14 03:09:30;;;;;;;13.33;10.90;;;21.10;36.20;;;;;;5060199;28;20392;-78
2022/08/14 03:11:56;;;;;;;13.93;11.40;;;21.00;36.80;;;;;;5063790;28;20385;-76
2022/08/14 03:14:24;;;;;;;12.47;11.27;;;21.10;37.30;;;;;;5064466;28;20389;-78
2022/08/14 03:16:50;;;;;;;12.57;11.27;;;21.20;36.60;;;;;;5063642;28;20535;-77
2022/08/14 03:19:16;;;;;;;14.60;11.43;;;21.10;37.20;;;;;;5058543;28;20451;-77
2022/08/14 03:21:42;;;;;;;13.20;11.77;;;21.00;37.60;;;;;;5053585;28;20805;-77
2022/08/14 03:24:11;;;;;;;13.00;11.10;;;20.90;38.10;;;;;;5053617;28;20420;-77
2022/08/14 03:26:44;;;;;;;12.40;11.10;;;20.90;38.50;;;;;;5053936;28;20389;-78
2022/08/14 03:29:12;;;;;;;13.68;11.52;;;20.80;39.40;;;;;;5052066;28;20385;-77
2022/08/14 03:31:40;;;;;;;13.65;11.60;;;20.60;40.20;;;;;;5053338;28;20389;-78
2022/08/14 03:34:09;;;;;;;13.63;11.55;;;20.60;40.60;;;;;;5053225;28;20390;-78
2022/08/14 03:36:35;;;;;;;16.08;12.00;;;20.50;41.60;;;;;;5053204;28;20773;-78
2022/08/14 03:39:04;;;;;;;14.07;11.02;;;20.50;41.60;;;;;;5052423;28;20425;-78
2022/08/14 03:41:30;;;;;;;14.18;11.85;;;20.60;41.40;;;;;;5052928;28;20378;-78
2022/08/14 03:44:00;;;;;;;16.63;11.80;;;20.60;41.10;;;;;;5053077;28;20381;-79
2022/08/14 03:46:28;;;;;;;13.90;12.40;;;20.60;41.40;;;;;;5051742;28;20454;-78
2022/08/14 03:48:54;;;;;;;14.20;12.20;;;20.70;40.90;;;;;;5052878;28;20476;-78
2022/08/14 03:51:21;;;;;;;13.85;11.63;;;20.60;41.50;;;;;;5052593;28;20834;-79
2022/08/14 03:53:47;;;;;;;14.20;11.68;;;20.60;42.20;;;;;;5053312;28;20381;-78
2022/08/14 03:56:15;;;;;;;17.20;12.10;;;20.60;41.40;;;;;;5053373;28;20440;-76
2022/08/14 03:58:45;;;;;;;16.13;12.18;;;20.80;39.90;;;;;;5052174;28;20900;-77
2022/08/14 04:01:12;;;;;;;15.25;11.73;;;20.90;39.20;;;;;;5052675;28;20443;-78
2022/08/14 04:03:38;;;;;;;12.90;11.50;;;20.70;40.60;;;;;;5052713;28;20456;-78
2022/08/14 04:06:04;;;;;;;17.90;12.50;;;20.50;42.00;;;;;;5054115;28;20425;-78
2022/08/14 04:08:35;;;;;;;17.53;11.57;;;20.40;43.00;;;;;;5054032;28;20393;-79
2022/08/14 04:11:01;;;;;;;15.63;12.75;;;20.30;44.30;;;;;;5050913;28;20393;-79
2022/08/14 04:13:26;;;;;;;13.98;12.57;;;20.40;44.60;;;;;;5052562;28;20394;-79
2022/08/14 04:15:52;;;;;;;14.90;12.02;;;20.70;42.60;;;;;;5052545;28;20388;-79
2022/08/14 04:18:18;;;;;;;13.13;11.73;;;20.60;42.20;;;;;;5052264;28;20392;-78
2022/08/14 04:20:44;;;;;;;15.18;12.25;;;20.50;43.10;;;;;;5054900;28;20377;-78
2022/08/14 04:23:09;;;;;;;18.38;12.45;;;20.30;44.50;;;;;;5053934;28;20385;-77
2022/08/14 04:25:36;;;;;;;17.20;12.23;;;20.30;45.70;;;;;;5052174;28;20466;-79
2022/08/14 04:28:04;;;;;;;14.82;12.43;;;20.20;46.30;;;;;;5053638;28;20480;-78
2022/08/14 04:30:37;;;;;;;13.90;12.40;;;20.10;46.80;;;;;;5052174;28;20388;-77
2022/08/14 04:33:07;;;;;;;16.25;11.65;;;20.30;46.30;;;;;;5050939;28;20405;-77
2022/08/14 04:35:36;;;;;;;16.75;13.38;;;20.30;46.30;;;;;;5052437;28;20448;-78
2022/08/14 04:43:35;;;;;;;15.10;12.55;;;20.20;46.50;;;;;;5052915;28;20750;-77
2022/08/14 04:46:02;;;;;;;17.30;13.30;;;20.30;46.90;;;;;;5052316;28;20419;-78
2022/08/14 04:48:27;;;;;;;16.33;13.40;;;20.30;47.10;;;;;;5052412;28;20758;-79
2022/08/14 04:50:57;;;;;;;16.47;13.10;;;20.30;47.00;;;;;;5060112;28;20385;-78
2022/08/14 04:53:25;;;;;;;15.25;12.60;;;20.40;47.00;;;;;;5072597;28;20412;-79
2022/08/14 04:55:51;;;;;;;15.18;12.98;;;20.30;47.60;;;;;;5068685;28;20734;-78
2022/08/14 04:58:27;;;;;;;15.00;13.00;;;20.30;47.40;;;;;;5053657;28;20382;-77
2022/08/14 05:00:54;;;;;;;15.07;13.23;;;20.20;48.00;;;;;;5052337;28;20377;-78
2022/08/14 05:03:21;;;;;;;15.35;12.70;;;20.20;48.60;;;;;;5052298;28;20384;-80
2022/08/14 05:05:48;;;;;;;14.30;12.80;;;20.30;48.30;;;;;;5051764;28;20385;-79
2022/08/14 05:08:14;;;;;;;16.73;13.00;;;20.30;47.80;;;;;;5052054;28;20873;-78
2022/08/14 05:10:43;;;;;;;14.40;12.73;;;20.60;46.50;;;;;;5050348;28;20521;-79
2022/08/14 05:13:09;;;;;;;16.48;13.15;;;20.80;44.70;;;;;;5051363;28;20885;-78
2022/08/14 05:15:39;;;;;;;15.45;13.23;;;20.80;44.50;;;;;;5051844;28;20519;-78
2022/08/14 05:18:11;;;;;;;15.80;12.80;;;20.80;43.60;;;;;;5051451;28;20895;-78
2022/08/14 05:20:42;;;;;;;14.80;12.85;;;20.90;43.10;;;;;;5051162;28;20893;-77
2022/08/14 05:23:08;;;;;;;18.02;13.15;;;20.90;42.80;;;;;;5049832;28;20385;-78
2022/08/14 05:25:35;;;;;;;14.10;12.65;;;21.10;41.90;;;;;;5051491;28;20388;-78
2022/08/14 05:28:17;;;;;;;16.02;12.57;;;21.10;42.40;;;;;;5051724;28;20397;-79
2022/08/14 05:30:45;;;;;;;15.45;12.73;;;21.40;40.00;;;;;;5051424;28;20402;-78
2022/08/14 05:33:11;;;;;;;16.67;12.68;;;21.30;40.80;;;;;;5057498;28;20900;-78
2022/08/14 05:35:37;;;;;;;14.40;12.90;;;21.50;40.30;;;;;;5056282;28;20385;-78
2022/08/14 05:38:08;;;;;;;13.00;11.70;;;21.70;39.10;;;;;;5051876;28;20406;-78
2022/08/14 05:40:34;;;;;;;15.07;11.90;;;21.70;39.10;;;;;;5051328;28;20451;-78
2022/08/14 05:43:00;;;;;;;13.93;12.43;;;21.80;38.20;;;;;;5050658;28;20385;-78
2022/08/14 05:45:25;;;;;;;13.30;11.90;;;21.80;37.80;;;;;;5050833;28;20392;-77
2022/08/14 05:47:51;;;;;;;14.32;12.82;;;21.90;37.50;;;;;;5049505;28;20786;-78
2022/08/14 05:50:17;;;;;;;14.80;12.25;;;21.90;37.30;;;;;;5050987;28;20434;-78
2022/08/14 05:52:42;;;;;;;15.33;12.93;;;22.00;37.20;;;;;;5050429;28;20892;-78
2022/08/14 05:55:09;;;;;;;14.93;12.40;;;22.10;36.60;;;;;;5050798;28;20485;-79
2022/08/14 05:57:59;;;;;;;13.48;11.93;;;22.20;35.90;;;;;;5050773;28;20423;-79
2022/08/14 06:00:32;;;;;;;14.05;11.70;;;22.30;35.50;;;;;;5049923;28;20779;-79
2022/08/14 06:02:59;;;;;;;15.95;12.77;;;22.40;34.90;;;;;;5057278;28;20434;-77
2022/08/14 06:05:25;;;;;;;14.40;12.20;;;22.40;34.60;;;;;;5057597;28;20442;-78
2022/08/14 06:07:51;;;;;;;22.98;13.00;;;22.50;34.10;;;;;;5055789;28;20385;-77
2022/08/14 06:10:17;;;;;;;14.50;12.20;;;22.60;34.10;;;;;;5057282;28;20389;-77
2022/08/14 06:12:42;;;;;;;13.00;11.70;;;22.60;33.90;;;;;;5056872;28;20584;-78
2022/08/14 06:15:09;;;;;;;15.00;12.50;;;22.70;33.40;;;;;;5055718;28;20874;-78
2022/08/14 06:17:50;;;;;;;16.98;12.60;;;22.80;32.70;;;;;;5057339;28;20407;-78
2022/08/14 06:20:17;;;;;;;16.73;13.18;;;22.90;32.20;;;;;;5057255;28;20385;-78
2022/08/14 06:22:44;;;;;;;15.05;12.00;;;23.00;32.10;;;;;;5057394;28;20443;-77
2022/08/14 06:25:12;;;;;;;13.40;12.00;;;23.20;31.50;;;;;;5057372;28;20385;-77
2022/08/14 06:27:39;;;;;;;13.45;12.02;;;23.20;31.00;;;;;;5057353;28;20389;-78
2022/08/14 06:30:09;;;;;;;13.23;11.57;;;23.40;30.70;;;;;;5057137;28;20396;-78
2022/08/14 06:32:36;;;;;;;16.45;12.40;;;23.40;29.90;;;;;;5057694;28;20385;-77
2022/08/14 06:35:05;;;;;;;13.85;11.35;;;23.60;29.30;;;;;;5057266;28;20389;-78
2022/08/14 06:37:49;;;;;;;14.18;12.57;;;23.70;29.20;;;;;;5057103;28;20961;-78
2022/08/14 06:40:17;;;;;;;13.73;11.88;;;23.70;28.90;;;;;;5058383;28;20382;-78
2022/08/14 06:42:43;;;;;;;14.43;12.90;;;23.80;28.50;;;;;;5058086;28;20377;-78
2022/08/14 06:45:09;;;;;;;13.75;11.63;;;23.80;28.30;;;;;;5058567;28;20376;-77
2022/08/14 06:47:41;;;;;;;13.20;11.80;;;23.90;28.00;;;;;;5060116;28;20393;-79
2022/08/14 06:50:09;;;;;;;13.38;11.88;;;24.10;27.60;;;;;;5059243;28;20694;-78
2022/08/14 06:52:36;;;;;;;13.70;12.30;;;24.10;27.40;;;;;;5058815;28;20750;-78
2022/08/14 06:55:03;;;;;;;13.82;12.32;;;24.20;27.00;;;;;;5061407;28;20389;-78
2022/08/14 06:57:44;;;;;;;13.17;11.83;;;24.40;26.60;;;;;;5062496;28;20462;-79
2022/08/14 07:00:18;;;;;;;17.23;12.38;;;24.30;26.50;;;;;;5060744;28;20439;-76
2022/08/14 07:05:45;;;;;;;13.27;11.65;;;24.40;26.30;;;;;;5062938;28;20750;-76
2022/08/14 07:08:18;;;;;;;15.98;11.40;;;24.50;25.90;;;;;;5058328;28;20385;-79
2022/08/14 07:10:45;;;;;;;13.57;11.10;;;24.60;25.60;;;;;;5057336;28;20854;-78
2022/08/14 07:13:12;;;;;;;13.43;11.07;;;24.60;25.80;;;;;;5053794;28;20435;-78
2022/08/14 07:15:39;;;;;;;18.58;11.57;;;24.80;25.40;;;;;;5054175;28;20420;-77
2022/08/14 07:18:07;;;;;;;13.82;11.30;;;24.80;25.10;;;;;;5055647;28;20444;-78
2022/08/14 07:20:33;;;;;;;11.88;10.65;;;24.80;25.20;;;;;;5056073;28;20393;-79
2022/08/14 07:23:01;;;;;;;12.33;11.03;;;25.00;24.60;;;;;;5060511;28;20411;-78
2022/08/14 07:25:28;;;;;;;12.38;11.05;;;25.10;24.20;;;;;;5064483;28;20382;-78
2022/08/14 07:27:55;;;;;;;14.60;11.30;;;25.10;23.80;;;;;;5067630;28;20391;-78
2022/08/14 07:30:21;;;;;;;11.82;10.63;;;25.20;23.60;;;;;;5067955;28;20415;-77
2022/08/14 07:32:48;;;;;;;12.57;10.77;;;25.30;23.00;;;;;;5066445;28;20385;-77
2022/08/14 07:35:14;;;;;;;12.40;11.10;;;25.30;22.70;;;;;;5053940;28;20382;-79
2022/08/14 07:37:40;;;;;;;12.75;10.75;;;25.40;22.20;;;;;;5057964;28;20488;-77
2022/08/14 07:40:07;;;;;;;11.18;10.02;;;25.40;22.30;;;;;;5055435;28;20397;-78
2022/08/14 07:42:33;;;;;;;11.90;10.70;;;25.50;22.30;;;;;;5053404;28;20385;-78
2022/08/14 07:44:59;;;;;;;11.82;10.20;;;25.60;22.10;;;;;;5054547;28;20433;-79
2022/08/14 07:47:25;;;;;;;11.40;10.30;;;25.70;21.20;;;;;;5052105;28;20372;-79
2022/08/14 07:50:10;;;;;;;11.38;9.88;;;25.80;21.50;;;;;;5053568;28;20383;-78
2022/08/14 07:52:37;;;;;;;10.63;9.52;;;25.90;20.80;;;;;;5053712;28;20864;-79
2022/08/14 07:55:03;;;;;;;14.20;10.47;;;26.10;20.60;;;;;;5056769;28;20393;-78
2022/08/14 07:57:29;;;;;;;11.88;10.18;;;26.10;20.50;;;;;;5053192;28;20897;-78
2022/08/14 07:59:54;;;;;;;11.50;10.00;;;26.20;20.30;;;;;;5052972;28;20421;-78
2022/08/14 08:02:20;;;;;;;12.70;10.20;;;26.30;20.00;;;;;;5052462;28;20385;-78
2022/08/14 08:04:49;;;;;;;11.52;10.32;;;26.30;19.90;;;;;;5051992;28;20373;-77
2022/08/14 08:07:15;;;;;;;11.43;10.18;;;26.30;19.80;;;;;;5053623;28;20391;-79
2022/08/14 08:09:49;;;;;;;13.13;9.95;;;26.30;19.70;;;;;;5053258;28;20381;-79
2022/08/14 08:12:16;;;;;;;13.57;9.63;;;26.40;19.60;;;;;;5066445;22;20797;-73
2022/08/14 08:14:42;;;;;;;12.73;10.05;;;26.50;19.20;;;;;;5053015;28;20374;-73
2022/08/14 08:17:09;;;;;;;12.25;9.73;;;26.50;19.40;;;;;;5053122;28;20526;-72
2022/08/14 08:19:36;;;;;;;10.80;9.40;;;26.60;19.30;;;;;;5053232;28;20389;-73
2022/08/14 08:22:02;;;;;;;13.77;9.98;;;26.70;18.80;;;;;;5048077;28;20391;-74
2022/08/14 08:24:28;;;;;;;10.90;9.80;;;26.70;18.50;;;;;;5032497;28;20387;-74
2022/08/14 08:26:53;;;;;;;12.30;9.30;;;26.90;18.50;;;;;;5032895;28;20394;-73
2022/08/14 08:29:21;;;;;;;11.10;10.00;;;27.10;18.10;;;;;;5032621;28;20462;-72
2022/08/14 08:31:49;;;;;;;10.90;9.30;;;27.10;18.10;;;;;;5032399;28;20383;-73
2022/08/14 08:34:18;;;;;;;11.23;10.10;;;27.10;18.20;;;;;;5034696;28;20451;-72
2022/08/14 08:36:44;;;;;;;10.60;9.50;;;27.30;17.80;;;;;;5047023;28;20403;-72
2022/08/14 08:39:11;;;;;;;17.57;9.70;;;27.50;17.30;;;;;;5045960;28;20409;-74
2022/08/14 08:41:45;;;;;;;11.98;9.88;;;27.50;17.20;;;;;;5033017;28;20566;-74
2022/08/14 08:44:12;;;;;;;11.20;9.10;;;27.50;17.20;;;;;;5033210;28;20391;-72
2022/08/14 08:46:38;;;;;;;9.82;8.93;;;27.80;16.40;;;;;;5032823;28;20391;-72
2022/08/14 08:49:04;;;;;;;10.57;9.48;;;27.80;16.10;;;;;;5032805;28;20387;-74
2022/08/14 08:51:34;;;;;;;11.10;9.05;;;27.90;16.30;;;;;;5032718;28;20421;-74
2022/08/14 08:54:02;;;;;;;9.80;8.80;;;27.80;16.00;;;;;;5032066;28;20389;-74
2022/08/14 08:56:40;;;;;;;10.77;8.95;;;27.90;15.80;;;;;;5032299;28;20410;-73
2022/08/14 08:59:30;;;;;;;10.55;8.80;;;27.90;15.70;;;;;;5032323;28;20425;-73
2022/08/14 09:02:01;;;;;;;9.20;8.30;;;28.10;15.60;;;;;;5030454;28;20474;-73
2022/08/14 09:04:41;;;;;;;9.05;8.15;;;28.10;15.30;;;;;;5032125;28;20391;-73
2022/08/14 09:07:07;;;;;;;10.23;8.50;;;28.00;15.20;;;;;;5032060;28;20470;-74
2022/08/14 09:09:49;;;;;;;10.68;8.48;;;28.30;14.90;;;;;;5032320;28;20437;-73
2022/08/14 09:12:16;;;;;;;9.15;8.25;;;28.50;14.90;;;;;;5031479;28;20492;-73
2022/08/14 09:14:42;;;;;;;9.95;8.57;;;28.60;14.50;;;;;;5030518;28;20431;-72
2022/08/14 09:17:08;;;;;;;9.52;8.13;;;28.60;14.60;;;;;;5031681;28;20439;-73
2022/08/14 09:19:35;;;;;;;11.20;8.70;;;28.70;14.10;;;;;;5031495;28;20910;-73
2022/08/14 09:22:02;;;;;;;9.07;8.25;;;28.50;13.80;;;;;;5031696;28;20393;-73
2022/08/14 09:24:28;;;;;;;9.05;8.00;;;28.50;13.00;;;;;;5031600;28;20466;-73
2022/08/14 09:26:54;;;;;;;10.23;8.10;;;28.50;13.30;;;;;;5031933;28;20517;-74
2022/08/14 09:29:20;;;;;;;8.35;7.40;;;28.60;12.90;;;;;;5031842;28;20863;-73
2022/08/14 09:31:53;;;;;;;7.93;7.13;;;28.80;11.30;;;;;;5031683;28;20396;-74
2022/08/14 09:34:47;;;;;;;8.13;7.32;;;28.80;10.60;;;;;;5031740;28;20459;-74
2022/08/14 09:37:36;;;;;;;7.70;7.00;;;28.80;11.20;;;;;;5030937;28;20406;-72
2022/08/14 09:40:16;;;;;;;9.13;7.63;;;28.80;11.30;;;;;;5031441;28;20383;-73
2022/08/14 09:42:47;;;;;;;7.80;7.10;;;28.90;11.50;;;;;;5031525;28;20383;-73
2022/08/14 09:45:27;;;;;;;8.75;7.30;;;29.00;10.70;;;;;;5031976;28;20375;-73
2022/08/14 09:47:56;;;;;;;7.47;6.77;;;29.10;10.40;;;;;;5031575;28;20433;-74
2022/08/14 09:50:43;;;;;;;7.38;6.60;;;29.10;10.10;;;;;;5031579;28;20387;-74
2022/08/14 09:53:09;;;;;;;8.40;7.40;;;29.20;10.50;;;;;;5031482;28;20379;-73
2022/08/14 09:55:36;;;;;;;8.70;7.90;;;29.40;10.90;;;;;;5031742;28;20394;-73
2022/08/14 09:58:19;;;;;;;9.00;6.90;;;29.60;9.90;;;;;;5039953;28;20407;-72
2022/08/14 10:00:50;;;;;;;8.27;7.47;;;29.60;10.00;;;;;;5051863;28;20387;-72
2022/08/14 10:03:33;;;;;;;11.63;7.53;;;29.70;9.70;;;;;;5043893;28;20380;-72
2022/08/14 10:06:16;;;;;;;7.30;6.60;;;29.70;9.70;;;;;;5042565;28;20775;-72
2022/08/14 10:08:44;;;;;;;7.00;6.40;;;29.50;9.20;;;;;;5039309;28;20389;-73
2022/08/14 10:11:22;;;;;;;11.73;6.70;;;29.60;9.20;;;;;;5031730;28;20383;-73
2022/08/14 10:13:53;;;;;;;6.72;6.13;;;29.60;9.00;;;;;;5031410;28;20796;-72
2022/08/14 10:16:20;;;;;;;6.35;5.53;;;29.60;8.20;;;;;;5031504;28;20410;-74
2022/08/14 10:18:49;;;;;;;6.95;6.25;;;29.70;7.10;;;;;;5030241;28;20403;-74
2022/08/14 10:21:17;;;;;;;7.18;6.43;;;29.80;7.30;;;;;;5031188;28;20406;-73
2022/08/14 10:23:48;;;;;;;8.57;6.00;;;29.80;7.30;;;;;;5031175;28;20386;-73
2022/08/14 10:26:17;;;;;;;6.80;6.10;;;29.80;7.70;;;;;;5031533;28;20469;-73
2022/08/14 10:28:45;;;;;;;8.07;6.47;;;29.80;7.70;;;;;;5031488;28;20898;-73
2022/08/14 10:31:20;;;;;;;8.80;5.70;;;29.90;7.30;;;;;;5031500;28;20412;-73
2022/08/14 10:34:07;;;;;;;6.10;5.60;;;30.10;6.70;;;;;;5031367;28;20387;-73
2022/08/14 10:36:37;;;;;;;7.93;6.32;;;30.30;6.50;;;;;;5031770;28;20407;-72
2022/08/14 10:39:15;;;;;;;7.30;6.32;;;30.40;6.30;;;;;;5031374;28;20390;-73
2022/08/14 10:41:42;;;;;;;7.47;5.93;;;30.40;6.50;;;;;;5031042;28;20906;-73
2022/08/14 10:44:10;;;;;;;7.22;6.35;;;30.50;6.10;;;;;;5031917;28;20391;-73
2022/08/14 10:46:43;;;;;;;6.90;6.20;;;30.40;6.10;;;;;;5030998;28;20445;-73
2022/08/14 10:49:20;;;;;;;7.00;6.40;;;30.20;7.00;;;;;;5033760;28;20424;-73
2022/08/14 10:51:58;;;;;;;6.78;6.28;;;30.30;7.50;;;;;;5034337;28;20392;-72
2022/08/14 10:54:30;;;;;;;6.88;6.18;;;30.50;7.40;;;;;;5034235;28;20398;-72
2022/08/14 10:56:57;;;;;;;6.70;6.10;;;30.70;6.10;;;;;;5034410;28;20425;-72
2022/08/14 10:59:23;;;;;;;7.88;6.22;;;30.80;6.10;;;;;;5034516;28;20477;-74
2022/08/14 11:01:49;;;;;;;8.40;7.15;;;30.80;5.90;;;;;;5034425;28;20395;-73
2022/08/14 11:04:23;;;;;;;6.43;5.93;;;30.70;6.10;;;;;;5034525;28;20449;-76
2022/08/14 11:06:52;;;;;;;6.70;6.00;;;30.70;5.80;;;;;;5035506;28;20414;-74
2022/08/14 11:09:18;;;;;;;6.47;5.97;;;30.50;6.20;;;;;;5034637;28;20470;-75
2022/08/14 11:11:44;;;;;;;6.70;6.07;;;30.60;6.60;;;;;;5034349;28;20419;-76
2022/08/14 11:14:10;;;;;;;6.30;5.80;;;30.80;5.80;;;;;;5034926;28;20406;-74
2022/08/14 11:16:38;;;;;;;7.75;6.00;;;30.90;5.60;;;;;;5034616;28;20488;-75
2022/08/14 11:19:06;;;;;;;6.40;5.80;;;31.10;5.80;;;;;;5034970;28;20387;-75
2022/08/14 11:21:33;;;;;;;6.50;5.90;;;31.30;5.60;;;;;;5034774;28;20792;-75
2022/08/14 11:24:00;;;;;;;7.15;6.40;;;31.50;5.30;;;;;;5034422;28;20452;-74
2022/08/14 11:26:28;;;;;;;7.65;6.38;;;31.30;5.00;;;;;;5034796;28;20717;-75
2022/08/14 11:28:55;;;;;;;6.97;6.38;;;30.90;5.30;;;;;;5033180;28;20387;-74
2022/08/14 11:31:22;;;;;;;7.03;6.32;;;30.90;5.20;;;;;;5034414;28;20492;-75
2022/08/14 11:33:56;;;;;;;7.27;6.57;;;31.10;5.30;;;;;;5034262;28;20398;-76
2022/08/14 11:36:27;;;;;;;6.80;6.10;;;31.30;4.90;;;;;;5035159;28;20407;-75
2022/08/14 11:38:53;;;;;;;8.68;6.07;;;31.60;4.70;;;;;;5037693;28;20471;-76
2022/08/14 11:41:19;;;;;;;6.10;5.60;;;31.90;4.10;;;;;;5033981;28;20391;-74
2022/08/14 11:43:46;;;;;;;7.32;5.30;;;32.20;3.40;;;;;;5034844;28;20394;-75
2022/08/14 11:46:15;;;;;;;5.57;5.07;;;32.50;2.40;;;;;;5035164;28;20383;-75
2022/08/14 11:48:46;;;;;;;6.43;5.30;;;33.00;2.20;;;;;;5032538;28;20471;-74
2022/08/14 11:51:17;;;;;;;5.40;5.00;;;33.00;1.00;;;;;;5034290;28;20466;-74
2022/08/14 11:53:50;;;;;;;6.18;5.40;;;33.10;1.00;;;;;;5034495;28;20872;-75
2022/08/14 11:56:15;;;;;;;5.55;5.15;;;33.10;1.00;;;;;;5033972;28;20430;-75
2022/08/14 11:58:42;;;;;;;5.63;5.10;;;33.10;1.00;;;;;;5033636;28;20382;-75
2022/08/14 12:01:08;;;;;;;5.20;4.80;;;33.20;1.00;;;;;;5033880;28;20458;-74
2022/08/14 12:03:45;;;;;;;5.40;5.00;;;33.30;1.00;;;;;;5034470;28;20406;-75
2022/08/14 12:06:15;;;;;;;5.20;4.80;;;33.60;1.00;;;;;;5043448;28;20363;-73
2022/08/14 12:08:41;;;;;;;7.80;5.80;;;33.60;1.00;;;;;;5055600;28;20423;-74
2022/08/14 12:11:09;;;;;;;5.70;5.20;;;33.70;1.00;;;;;;5049321;28;20398;-76
2022/08/14 12:13:35;;;;;;;5.38;4.97;;;34.10;1.00;;;;;;5033948;28;20399;-76
2022/08/14 12:16:04;;;;;;;8.85;6.60;;;34.30;1.00;;;;;;5032443;28;21085;-75
2022/08/14 12:18:38;;;;;;;6.00;5.40;;;34.30;1.00;;;;;;5032673;28;20402;-75
2022/08/14 12:21:22;;;;;;;7.07;5.30;;;34.40;1.00;;;;;;5033541;28;20749;-75
2022/08/14 12:24:05;;;;;;;5.50;5.05;;;34.40;1.00;;;;;;5033712;28;20383;-75
2022/08/14 12:26:31;;;;;;;5.38;4.97;;;34.20;1.00;;;;;;5033317;28;20419;-75
2022/08/14 12:29:17;;;;;;;6.68;5.43;;;33.90;1.00;;;;;;5033936;28;20418;-76
2022/08/14 12:31:46;;;;;;;5.53;5.13;;;33.90;1.20;;;;;;5031951;28;20401;-74
2022/08/14 12:34:13;;;;;;;6.30;5.70;;;34.10;1.20;;;;;;5032839;28;20904;-74
2022/08/14 12:36:39;;;;;;;6.00;5.50;;;34.30;1.00;;;;;;5035334;28;20411;-73
2022/08/14 12:39:17;;;;;;;6.07;5.68;;;34.50;1.00;;;;;;5036864;28;20444;-73
2022/08/14 12:41:54;;;;;;;5.57;5.27;;;34.60;1.00;;;;;;5036127;28;20387;-75
2022/08/14 12:44:36;;;;;;;5.70;5.30;;;34.50;1.00;;;;;;5035037;28;20383;-73
2022/08/14 12:47:11;;;;;;;6.18;5.68;;;34.00;1.00;;;;;;5035629;28;20394;-76
2022/08/14 12:49:37;;;;;;;5.68;5.18;;;33.90;1.00;;;;;;5035103;28;20815;-75
2022/08/14 12:52:06;;;;;;;7.18;5.47;;;33.70;1.00;;;;;;5033076;28;20477;-73
2022/08/14 12:54:32;;;;;;;5.93;5.32;;;33.40;1.00;;;;;;5033061;28;20393;-75
2022/08/14 12:57:12;;;;;;;6.40;5.80;;;33.50;1.50;;;;;;5032822;28;20930;-74
2022/08/14 12:59:38;;;;;;;5.90;5.30;;;33.40;1.40;;;;;;5032658;28;20379;-75
2022/08/14 13:02:05;;;;;;;6.05;5.43;;;33.40;1.50;;;;;;5032107;28;20385;-76
2022/08/14 13:04:30;;;;;;;6.05;5.40;;;33.30;1.80;;;;;;5032273;28;20382;-76